sensor_id;sensor_type;location;lat;lon;timestamp;pressure;altitude;pressure_sealevel;temperature;humidity
43071;BME280;36278;47.952;21.714;2023-05-19T00:00:52;100981.44;;;10.28;100.00
43071;BME280;36278;47.952;21.714;2023-05-19T00:03:18;100978.41;;;10.34;100.00
43071;BME280;36278;47.952;21.714;2023-05-19T00:05:47;100981.53;;;10.27;100.00
43071;BME280;36278;47.952;21.714;2023-05-19T00:08:15;100981.81;;;10.22;100.00
43071;BME280;36278;47.952;21.714;2023-05-19T00:10:41;100979.91;;;10.24;100.00
43071;BME280;36278;47.952;21.714;2023-05-19T00:13:07;100974.53;;;10.26;100.00
43071;BME280;36278;47.952;21.714;2023-05-19T00:15:33;100977.09;;;10.27;100.00
43071;BME280;36278;47.952;21.714;2023-05-19T00:17:58;100975.41;;;10.26;100.00
43071;BME280;36278;47.952;21.714;2023-05-19T00:20:24;100986.16;;;10.23;100.00
43071;BME280;36278;47.952;21.714;2023-05-19T00:22:49;100982.47;;;10.26;100.00
43071;BME280;36278;47.952;21.714;2023-05-19T00:25:15;100978.22;;;10.23;100.00
43071;BME280;36278;47.952;21.714;2023-05-19T00:27:41;100978.97;;;10.25;100.00
43071;BME280;36278;47.952;21.714;2023-05-19T00:30:07;100970.56;;;10.19;100.00
43071;BME280;36278;47.952;21.714;2023-05-19T00:32:32;100980.94;;;10.22;100.00
43071;BME280;36278;47.952;21.714;2023-05-19T00:34:58;100972.34;;;10.18;100.00
43071;BME280;36278;47.952;21.714;2023-05-19T00:37:25;100980.31;;;10.18;100.00
43071;BME280;36278;47.952;21.714;2023-05-19T00:39:51;100971.56;;;10.16;100.00
43071;BME280;36278;47.952;21.714;2023-05-19T00:42:16;100972.63;;;10.14;100.00
43071;BME280;36278;47.952;21.714;2023-05-19T00:44:42;100970.84;;;10.14;100.00
43071;BME280;36278;47.952;21.714;2023-05-19T00:47:07;100975.94;;;10.17;100.00
43071;BME280;36278;47.952;21.714;2023-05-19T00:49:33;100973.88;;;10.22;100.00
43071;BME280;36278;47.952;21.714;2023-05-19T00:52:00;100977.09;;;10.27;100.00
43071;BME280;36278;47.952;21.714;2023-05-19T00:54:27;100982.47;;;10.26;100.00
43071;BME280;36278;47.952;21.714;2023-05-19T00:56:54;100976.41;;;10.24;100.00
43071;BME280;36278;47.952;21.714;2023-05-19T00:59:21;100983.34;;;10.26;100.00
43071;BME280;36278;47.952;21.714;2023-05-19T01:01:47;100978.22;;;10.23;100.00
43071;BME280;36278;47.952;21.714;2023-05-19T01:04:19;100968.75;;;10.19;100.00
43071;BME280;36278;47.952;21.714;2023-05-19T01:06:49;100976.53;;;10.22;100.00
43071;BME280;36278;47.952;21.714;2023-05-19T01:09:22;100973.94;;;10.21;100.00
43071;BME280;36278;47.952;21.714;2023-05-19T01:11:50;100963.00;;;10.13;100.00
43071;BME280;36278;47.952;21.714;2023-05-19T01:14:16;100960.88;;;10.18;100.00
43071;BME280;36278;47.952;21.714;2023-05-19T01:16:49;100958.56;;;10.13;100.00
43071;BME280;36278;47.952;21.714;2023-05-19T01:28:31;100959.88;;;10.34;100.00
43071;BME280;36278;47.952;21.714;2023-05-19T01:31:06;100968.44;;;10.38;100.00
43071;BME280;36278;47.952;21.714;2023-05-19T01:33:34;100967.72;;;10.36;100.00
43071;BME280;36278;47.952;21.714;2023-05-19T01:36:02;100974.81;;;10.35;100.00
43071;BME280;36278;47.952;21.714;2023-05-19T01:38:29;100985.56;;;10.47;100.00
43071;BME280;36278;47.952;21.714;2023-05-19T01:40:56;100985.94;;;10.41;100.00
43071;BME280;36278;47.952;21.714;2023-05-19T01:43:24;100991.47;;;10.50;100.00
43071;BME280;36278;47.952;21.714;2023-05-19T01:45:50;100985.78;;;10.56;100.00
43071;BME280;36278;47.952;21.714;2023-05-19T01:48:17;100984.94;;;10.56;100.00
43071;BME280;36278;47.952;21.714;2023-05-19T01:50:43;100976.16;;;10.55;100.00
43071;BME280;36278;47.952;21.714;2023-05-19T01:53:09;100985.78;;;10.56;100.00
43071;BME280;36278;47.952;21.714;2023-05-19T01:55:44;100974.84;;;10.48;100.00
43071;BME280;36278;47.952;21.714;2023-05-19T01:58:46;100986.75;;;10.55;100.00
43071;BME280;36278;47.952;21.714;2023-05-19T02:01:19;100991.59;;;10.49;100.00
43071;BME280;36278;47.952;21.714;2023-05-19T02:09:03;100987.69;;;10.54;100.00
43071;BME280;36278;47.952;21.714;2023-05-19T02:11:36;100983.25;;;10.55;100.00
43071;BME280;36278;47.952;21.714;2023-05-19T02:14:12;100988.44;;;10.56;100.00
43071;BME280;36278;47.952;21.714;2023-05-19T02:16:44;100989.16;;;10.46;100.00
43071;BME280;36278;47.952;21.714;2023-05-19T02:19:38;100992.84;;;10.43;100.00
43071;BME280;36278;47.952;21.714;2023-05-19T02:22:05;100993.59;;;10.45;100.00
43071;BME280;36278;47.952;21.714;2023-05-19T02:24:31;100985.75;;;10.44;100.00
43071;BME280;36278;47.952;21.714;2023-05-19T02:26:56;101004.47;;;10.41;100.00
43071;BME280;36278;47.952;21.714;2023-05-19T02:29:21;100994.66;;;10.43;100.00
43071;BME280;36278;47.952;21.714;2023-05-19T02:31:47;100981.91;;;10.35;100.00
43071;BME280;36278;47.952;21.714;2023-05-19T02:34:13;100997.69;;;10.36;100.00
43071;BME280;36278;47.952;21.714;2023-05-19T02:36:40;100989.28;;;10.30;100.00
43071;BME280;36278;47.952;21.714;2023-05-19T02:39:08;100991.34;;;10.25;100.00
43071;BME280;36278;47.952;21.714;2023-05-19T02:41:33;100990.63;;;10.23;100.00
43071;BME280;36278;47.952;21.714;2023-05-19T02:43:59;100983.59;;;10.22;100.00
43071;BME280;36278;47.952;21.714;2023-05-19T02:46:24;100983.78;;;10.19;100.00
43071;BME280;36278;47.952;21.714;2023-05-19T02:48:50;100986.44;;;10.19;100.00
43071;BME280;36278;47.952;21.714;2023-05-19T02:51:16;100979.72;;;10.13;100.00
43071;BME280;36278;47.952;21.714;2023-05-19T02:53:41;100982.59;;;10.10;100.00
43071;BME280;36278;47.952;21.714;2023-05-19T02:56:07;100980.22;;;10.05;100.00
43071;BME280;36278;47.952;21.714;2023-05-19T02:58:33;100987.94;;;10.08;100.00
43071;BME280;36278;47.952;21.714;2023-05-19T03:00:58;100980.97;;;10.07;100.00
43071;BME280;36278;47.952;21.714;2023-05-19T03:03:23;100987.88;;;10.10;100.00
43071;BME280;36278;47.952;21.714;2023-05-19T03:05:50;100983.31;;;10.12;100.00
43071;BME280;36278;47.952;21.714;2023-05-19T03:08:15;100987.78;;;10.11;100.00
43071;BME280;36278;47.952;21.714;2023-05-19T03:10:40;100984.06;;;10.14;100.00
43071;BME280;36278;47.952;21.714;2023-05-19T03:13:06;100979.84;;;10.11;100.00
43071;BME280;36278;47.952;21.714;2023-05-19T03:15:31;100983.00;;;10.17;100.00
43071;BME280;36278;47.952;21.714;2023-05-19T03:17:57;100983.59;;;10.07;100.00
43071;BME280;36278;47.952;21.714;2023-05-19T03:20:23;100997.88;;;10.19;100.00
43071;BME280;36278;47.952;21.714;2023-05-19T03:22:49;100996.94;;;10.20;100.00
43071;BME280;36278;47.952;21.714;2023-05-19T03:25:15;101002.13;;;10.22;100.00
43071;BME280;36278;47.952;21.714;2023-05-19T03:27:40;100995.13;;;10.21;100.00
43071;BME280;36278;47.952;21.714;2023-05-19T03:30:06;100986.50;;;10.17;100.00
43071;BME280;36278;47.952;21.714;2023-05-19T03:32:32;100992.03;;;10.28;100.00
43071;BME280;36278;47.952;21.714;2023-05-19T03:34:58;100976.88;;;10.16;100.00
43071;BME280;36278;47.952;21.714;2023-05-19T03:37:23;100986.16;;;10.23;100.00
43071;BME280;36278;47.952;21.714;2023-05-19T03:39:49;100978.22;;;10.23;100.00
43071;BME280;36278;47.952;21.714;2023-05-19T03:42:15;100975.19;;;10.29;100.00
43071;BME280;36278;47.952;21.714;2023-05-19T03:44:40;100970.56;;;10.19;100.00
43071;BME280;36278;47.952;21.714;2023-05-19T03:47:07;100981.53;;;10.27;100.00
43071;BME280;36278;47.952;21.714;2023-05-19T03:49:33;100985.03;;;10.27;100.00
43071;BME280;36278;47.952;21.714;2023-05-19T03:51:58;100977.28;;;10.24;100.00
43071;BME280;36278;47.952;21.714;2023-05-19T03:54:24;100984.72;;;10.32;100.00
43071;BME280;36278;47.952;21.714;2023-05-19T03:56:50;100983.28;;;10.41;100.00
43071;BME280;36278;47.952;21.714;2023-05-19T03:59:16;100987.56;;;10.43;100.00
43071;BME280;36278;47.952;21.714;2023-05-19T04:01:41;100989.41;;;10.55;100.00
43071;BME280;36278;47.952;21.714;2023-05-19T04:04:07;100987.59;;;10.56;100.00
43071;BME280;36278;47.952;21.714;2023-05-19T04:06:32;100991.09;;;10.56;100.00
43071;BME280;36278;47.952;21.714;2023-05-19T04:08:58;100998.59;;;10.50;100.00
43071;BME280;36278;47.952;21.714;2023-05-19T04:11:24;101003.09;;;10.62;100.00
43071;BME280;36278;47.952;21.714;2023-05-19T04:13:49;101014.16;;;10.69;100.00
43071;BME280;36278;47.952;21.714;2023-05-19T04:16:15;101010.34;;;10.73;100.00
43071;BME280;36278;47.952;21.714;2023-05-19T04:18:40;101014.28;;;10.80;100.00
43071;BME280;36278;47.952;21.714;2023-05-19T04:21:06;101013.91;;;10.86;100.00
43071;BME280;36278;47.952;21.714;2023-05-19T04:23:32;101024.09;;;10.92;100.00
43071;BME280;36278;47.952;21.714;2023-05-19T04:25:58;101010.69;;;10.81;100.00
43071;BME280;36278;47.952;21.714;2023-05-19T04:28:25;101025.47;;;10.85;100.00
43071;BME280;36278;47.952;21.714;2023-05-19T04:30:51;101020.19;;;10.98;100.00
43071;BME280;36278;47.952;21.714;2023-05-19T04:33:16;101018.66;;;11.08;100.00
43071;BME280;36278;47.952;21.714;2023-05-19T04:35:44;101012.28;;;11.23;100.00
43071;BME280;36278;47.952;21.714;2023-05-19T04:38:10;101028.13;;;11.37;100.00
43071;BME280;36278;47.952;21.714;2023-05-19T04:40:36;101017.41;;;11.39;100.00
43071;BME280;36278;47.952;21.714;2023-05-19T04:43:02;101015.19;;;11.45;100.00
43071;BME280;36278;47.952;21.714;2023-05-19T04:45:27;101003.00;;;11.43;100.00
43071;BME280;36278;47.952;21.714;2023-05-19T04:47:53;101014.91;;;11.50;100.00
43071;BME280;36278;47.952;21.714;2023-05-19T04:50:22;101005.94;;;11.38;100.00
43071;BME280;36278;47.952;21.714;2023-05-19T04:52:48;101004.69;;;11.44;100.00
43071;BME280;36278;47.952;21.714;2023-05-19T04:55:13;101013.38;;;11.46;100.00
43071;BME280;36278;47.952;21.714;2023-05-19T04:57:39;101014.88;;;11.63;100.00
43071;BME280;36278;47.952;21.714;2023-05-19T05:00:05;101009.91;;;11.71;100.00
43071;BME280;36278;47.952;21.714;2023-05-19T05:02:33;101013.31;;;11.86;100.00
43071;BME280;36278;47.952;21.714;2023-05-19T05:04:59;101013.63;;;12.06;100.00
43071;BME280;36278;47.952;21.714;2023-05-19T05:07:24;101009.13;;;12.20;100.00
43071;BME280;36278;47.952;21.714;2023-05-19T05:09:50;101015.94;;;12.24;99.27
43071;BME280;36278;47.952;21.714;2023-05-19T05:12:17;101009.72;;;12.36;100.00
43071;BME280;36278;47.952;21.714;2023-05-19T05:14:43;101016.72;;;12.50;100.00
43071;BME280;36278;47.952;21.714;2023-05-19T05:17:10;101017.41;;;12.65;97.82
43071;BME280;36278;47.952;21.714;2023-05-19T05:19:36;101023.56;;;12.65;99.29
43071;BME280;36278;47.952;21.714;2023-05-19T05:22:01;101012.09;;;12.65;97.12
43071;BME280;36278;47.952;21.714;2023-05-19T05:24:28;101022.00;;;12.62;97.22
43071;BME280;36278;47.952;21.714;2023-05-19T05:26:54;101025.78;;;12.71;98.46
43071;BME280;36278;47.952;21.714;2023-05-19T05:29:19;101023.13;;;12.71;97.34
43071;BME280;36278;47.952;21.714;2023-05-19T05:31:45;101025.97;;;12.81;96.63
43071;BME280;36278;47.952;21.714;2023-05-19T05:34:11;101013.38;;;12.83;97.26
43071;BME280;36278;47.952;21.714;2023-05-19T05:36:36;101018.94;;;13.04;95.52
43071;BME280;36278;47.952;21.714;2023-05-19T05:39:02;101023.50;;;13.02;96.39
43071;BME280;36278;47.952;21.714;2023-05-19T05:41:28;101028.88;;;13.13;95.99
43071;BME280;36278;47.952;21.714;2023-05-19T05:43:59;101022.66;;;13.25;93.96
43071;BME280;36278;47.952;21.714;2023-05-19T05:46:25;101016.63;;;13.23;94.72
43071;BME280;36278;47.952;21.714;2023-05-19T05:48:51;101030.44;;;13.39;93.76
43071;BME280;36278;47.952;21.714;2023-05-19T05:51:16;101029.94;;;13.34;94.80
43071;BME280;36278;47.952;21.714;2023-05-19T05:53:43;101024.66;;;13.45;94.25
43071;BME280;36278;47.952;21.714;2023-05-19T05:56:12;101021.16;;;13.56;94.93
43071;BME280;36278;47.952;21.714;2023-05-19T05:58:38;101021.69;;;13.72;93.01
43071;BME280;36278;47.952;21.714;2023-05-19T06:01:05;101024.72;;;13.79;91.94
43071;BME280;36278;47.952;21.714;2023-05-19T06:03:35;101028.47;;;13.88;91.77
43071;BME280;36278;47.952;21.714;2023-05-19T06:06:02;101032.84;;;13.89;91.42
43071;BME280;36278;47.952;21.714;2023-05-19T06:08:27;101024.63;;;14.03;91.41
43071;BME280;36278;47.952;21.714;2023-05-19T06:10:53;101029.34;;;14.11;90.84
43071;BME280;36278;47.952;21.714;2023-05-19T06:13:18;101030.78;;;14.26;89.60
43071;BME280;36278;47.952;21.714;2023-05-19T06:15:48;101034.53;;;14.12;90.78
43071;BME280;36278;47.952;21.714;2023-05-19T06:18:14;101028.13;;;14.26;90.87
43071;BME280;36278;47.952;21.714;2023-05-19T06:20:39;101038.41;;;14.30;91.29
43071;BME280;36278;47.952;21.714;2023-05-19T06:23:05;101049.19;;;14.29;91.60
43071;BME280;36278;47.952;21.714;2023-05-19T06:25:30;101035.25;;;14.14;93.15
43071;BME280;36278;47.952;21.714;2023-05-19T06:27:56;101026.19;;;14.28;92.34
43071;BME280;36278;47.952;21.714;2023-05-19T06:30:21;101043.47;;;14.45;91.61
43071;BME280;36278;47.952;21.714;2023-05-19T06:32:47;101041.44;;;14.60;91.05
43071;BME280;36278;47.952;21.714;2023-05-19T06:35:12;101042.34;;;14.81;89.74
43071;BME280;36278;47.952;21.714;2023-05-19T06:37:38;101038.47;;;14.85;89.51
43071;BME280;36278;47.952;21.714;2023-05-19T06:40:03;101033.22;;;14.95;88.35
43071;BME280;36278;47.952;21.714;2023-05-19T06:42:29;101026.44;;;14.91;86.56
43071;BME280;36278;47.952;21.714;2023-05-19T06:44:55;101047.66;;;14.92;87.42
43071;BME280;36278;47.952;21.714;2023-05-19T06:47:21;101036.84;;;14.94;86.85
43071;BME280;36278;47.952;21.714;2023-05-19T06:49:46;101043.38;;;15.01;87.28
43071;BME280;36278;47.952;21.714;2023-05-19T06:52:16;101041.84;;;15.19;87.88
43071;BME280;36278;47.952;21.714;2023-05-19T06:54:41;101029.41;;;15.29;87.62
43071;BME280;36278;47.952;21.714;2023-05-19T06:57:07;101041.84;;;15.19;87.89
43071;BME280;36278;47.952;21.714;2023-05-19T06:59:32;101034.63;;;15.31;87.26
43071;BME280;36278;47.952;21.714;2023-05-19T07:01:58;101040.38;;;15.47;86.80
43071;BME280;36278;47.952;21.714;2023-05-19T07:04:24;101046.16;;;15.52;88.27
43071;BME280;36278;47.952;21.714;2023-05-19T07:06:49;101022.66;;;15.46;86.55
43071;BME280;36278;47.952;21.714;2023-05-19T07:09:15;101043.31;;;15.44;88.70
43071;BME280;36278;47.952;21.714;2023-05-19T07:11:41;101046.41;;;15.28;87.38
43071;BME280;36278;47.952;21.714;2023-05-19T07:14:06;101044.47;;;15.51;89.60
43071;BME280;36278;47.952;21.714;2023-05-19T07:16:32;101047.06;;;15.74;87.89
43071;BME280;36278;47.952;21.714;2023-05-19T07:18:58;101038.69;;;15.88;86.14
43071;BME280;36278;47.952;21.714;2023-05-19T07:21:23;101046.22;;;16.04;87.33
43071;BME280;36278;47.952;21.714;2023-05-19T07:23:49;101045.53;;;16.11;85.66
43071;BME280;36278;47.952;21.714;2023-05-19T07:26:15;101051.03;;;16.10;85.19
43071;BME280;36278;47.952;21.714;2023-05-19T07:28:40;101052.56;;;16.12;83.76
43071;BME280;36278;47.952;21.714;2023-05-19T07:31:08;101048.31;;;16.00;84.15
43071;BME280;36278;47.952;21.714;2023-05-19T07:33:33;101038.47;;;16.01;85.63
43071;BME280;36278;47.952;21.714;2023-05-19T07:35:59;101044.66;;;16.01;85.72
43071;BME280;36278;47.952;21.714;2023-05-19T07:38:24;101048.03;;;16.03;85.97
43071;BME280;36278;47.952;21.714;2023-05-19T07:40:50;101045.50;;;16.02;84.81
43071;BME280;36278;47.952;21.714;2023-05-19T07:43:15;101041.63;;;16.15;86.36
43071;BME280;36278;47.952;21.714;2023-05-19T07:45:41;101044.53;;;16.03;86.01
43071;BME280;36278;47.952;21.714;2023-05-19T07:48:06;101048.00;;;16.24;84.63
43071;BME280;36278;47.952;21.714;2023-05-19T07:50:32;101045.94;;;16.37;86.55
43071;BME280;36278;47.952;21.714;2023-05-19T07:52:58;101043.09;;;16.29;84.50
43071;BME280;36278;47.952;21.714;2023-05-19T07:55:23;101047.97;;;16.54;85.29
43071;BME280;36278;47.952;21.714;2023-05-19T07:57:49;101055.41;;;16.61;84.41
43071;BME280;36278;47.952;21.714;2023-05-19T08:00:15;101061.72;;;16.80;84.30
43071;BME280;36278;47.952;21.714;2023-05-19T08:02:42;101053.94;;;16.77;84.40
43071;BME280;36278;47.952;21.714;2023-05-19T08:05:08;101051.31;;;16.97;83.38
43071;BME280;36278;47.952;21.714;2023-05-19T08:07:34;101042.16;;;16.90;82.64
43071;BME280;36278;47.952;21.714;2023-05-19T08:09:59;101034.69;;;17.22;82.53
43071;BME280;36278;47.952;21.714;2023-05-19T08:12:25;101031.00;;;17.43;82.11
43071;BME280;36278;47.952;21.714;2023-05-19T08:14:51;101032.09;;;17.69;81.71
43071;BME280;36278;47.952;21.714;2023-05-19T08:17:17;101025.59;;;17.81;81.26
43071;BME280;36278;47.952;21.714;2023-05-19T08:19:43;101012.03;;;17.92;80.03
43071;BME280;36278;47.952;21.714;2023-05-19T08:22:09;101022.03;;;18.00;80.83
43071;BME280;36278;47.952;21.714;2023-05-19T08:24:35;101022.94;;;18.18;79.69
43071;BME280;36278;47.952;21.714;2023-05-19T08:27:01;101024.31;;;18.23;78.67
43071;BME280;36278;47.952;21.714;2023-05-19T08:29:29;101024.97;;;18.34;78.19
43071;BME280;36278;47.952;21.714;2023-05-19T08:31:56;101027.78;;;18.60;77.24
43071;BME280;36278;47.952;21.714;2023-05-19T08:34:22;101026.75;;;18.71;77.13
43071;BME280;36278;47.952;21.714;2023-05-19T08:36:48;101028.25;;;18.83;76.64
43071;BME280;36278;47.952;21.714;2023-05-19T08:39:14;101014.66;;;18.85;74.65
43071;BME280;36278;47.952;21.714;2023-05-19T08:41:41;101007.84;;;18.90;74.98
43071;BME280;36278;47.952;21.714;2023-05-19T08:44:07;101017.03;;;19.05;76.68
43071;BME280;36278;47.952;21.714;2023-05-19T08:46:33;101010.97;;;19.03;73.15
43071;BME280;36278;47.952;21.714;2023-05-19T08:49:06;101018.75;;;19.07;74.31
43071;BME280;36278;47.952;21.714;2023-05-19T08:52:03;101007.69;;;18.92;77.93
43071;BME280;36278;47.952;21.714;2023-05-19T08:54:36;101018.31;;;19.19;77.17
43071;BME280;36278;47.952;21.714;2023-05-19T08:57:06;101016.38;;;19.29;75.28
43071;BME280;36278;47.952;21.714;2023-05-19T08:59:32;101006.78;;;19.45;76.10
43071;BME280;36278;47.952;21.714;2023-05-19T09:01:59;100996.75;;;19.29;73.75
43071;BME280;36278;47.952;21.714;2023-05-19T09:04:25;101002.03;;;19.56;74.54
43071;BME280;36278;47.952;21.714;2023-05-19T09:06:52;101008.63;;;19.44;76.16
43071;BME280;36278;47.952;21.714;2023-05-19T09:09:18;100999.25;;;19.66;74.96
43071;BME280;36278;47.952;21.714;2023-05-19T09:11:47;101010.94;;;19.83;73.90
43071;BME280;36278;47.952;21.714;2023-05-19T09:14:13;101012.38;;;20.03;72.68
43071;BME280;36278;47.952;21.714;2023-05-19T09:16:39;101003.50;;;20.11;71.94
43071;BME280;36278;47.952;21.714;2023-05-19T09:19:05;101011.22;;;19.72;73.85
43071;BME280;36278;47.952;21.714;2023-05-19T09:21:37;101013.19;;;19.70;73.23
43071;BME280;36278;47.952;21.714;2023-05-19T09:24:06;101009.25;;;19.82;73.09
43071;BME280;36278;47.952;21.714;2023-05-19T09:26:40;101011.78;;;20.17;72.36
43071;BME280;36278;47.952;21.714;2023-05-19T09:29:15;101004.75;;;19.91;72.90
43071;BME280;36278;47.952;21.714;2023-05-19T09:31:52;101004.13;;;19.97;74.55
43071;BME280;36278;47.952;21.714;2023-05-19T09:34:19;100996.69;;;20.33;72.91
43071;BME280;36278;47.952;21.714;2023-05-19T09:36:49;100994.78;;;20.17;75.17
43071;BME280;36278;47.952;21.714;2023-05-19T09:39:17;100998.16;;;20.19;73.15
43071;BME280;36278;47.952;21.714;2023-05-19T09:41:43;100997.81;;;20.48;74.77
43071;BME280;36278;47.952;21.714;2023-05-19T09:44:20;100982.53;;;20.65;72.66
43071;BME280;36278;47.952;21.714;2023-05-19T09:46:51;100996.34;;;20.62;72.51
43071;BME280;36278;47.952;21.714;2023-05-19T09:49:27;100975.25;;;20.49;70.04
43071;BME280;36278;47.952;21.714;2023-05-19T09:51:59;100978.00;;;20.74;70.48
43071;BME280;36278;47.952;21.714;2023-05-19T09:54:27;100981.00;;;20.54;73.92
43071;BME280;36278;47.952;21.714;2023-05-19T09:59:24;100985.75;;;20.85;68.88
43071;BME280;36278;47.952;21.714;2023-05-19T10:01:57;100984.09;;;21.00;68.31
43071;BME280;36278;47.952;21.714;2023-05-19T10:04:26;100982.94;;;21.03;68.83
43071;BME280;36278;47.952;21.714;2023-05-19T10:06:56;100981.75;;;21.05;66.90
43071;BME280;36278;47.952;21.714;2023-05-19T10:09:27;100972.63;;;21.22;67.95
43071;BME280;36278;47.952;21.714;2023-05-19T10:11:57;100967.44;;;21.29;67.53
43071;BME280;36278;47.952;21.714;2023-05-19T10:14:25;100967.78;;;21.26;68.59
43071;BME280;36278;47.952;21.714;2023-05-19T10:16:54;100973.00;;;21.27;67.40
43071;BME280;36278;47.952;21.714;2023-05-19T10:19:21;100972.00;;;21.29;68.99
43071;BME280;36278;47.952;21.714;2023-05-19T10:21:48;100973.00;;;21.44;68.01
43071;BME280;36278;47.952;21.714;2023-05-19T10:24:14;100975.31;;;21.55;67.61
43071;BME280;36278;47.952;21.714;2023-05-19T10:26:44;100977.50;;;21.68;67.95
43071;BME280;36278;47.952;21.714;2023-05-19T10:29:14;100969.50;;;21.91;65.76
43071;BME280;36278;47.952;21.714;2023-05-19T10:31:43;100967.28;;;22.02;66.52
43071;BME280;36278;47.952;21.714;2023-05-19T10:36:59;100966.91;;;21.50;68.65
43071;BME280;36278;47.952;21.714;2023-05-19T10:39:33;100971.97;;;21.45;69.65
43071;BME280;36278;47.952;21.714;2023-05-19T10:42:14;100961.50;;;21.50;67.70
43071;BME280;36278;47.952;21.714;2023-05-19T10:44:47;100961.47;;;21.66;67.71
43071;BME280;36278;47.952;21.714;2023-05-19T10:47:22;100955.38;;;21.80;65.97
43071;BME280;36278;47.952;21.714;2023-05-19T10:49:48;100949.44;;;21.93;66.38
43071;BME280;36278;47.952;21.714;2023-05-19T10:52:21;100955.66;;;21.94;66.74
43071;BME280;36278;47.952;21.714;2023-05-19T10:54:50;100952.63;;;21.97;66.80
43071;BME280;36278;47.952;21.714;2023-05-19T10:57:19;100958.06;;;21.80;66.52
43071;BME280;36278;47.952;21.714;2023-05-19T10:59:49;100956.34;;;21.96;66.42
43071;BME280;36278;47.952;21.714;2023-05-19T11:02:42;100951.44;;;22.07;67.93
43071;BME280;36278;47.952;21.714;2023-05-19T11:05:11;100960.38;;;22.00;64.82
43071;BME280;36278;47.952;21.714;2023-05-19T11:07:58;100947.06;;;22.37;63.85
43071;BME280;36278;47.952;21.714;2023-05-19T11:10:30;100933.53;;;22.69;63.02
43071;BME280;36278;47.952;21.714;2023-05-19T11:12:57;100926.22;;;23.00;62.79
43071;BME280;36278;47.952;21.714;2023-05-19T11:15:25;100935.41;;;23.29;63.41
43071;BME280;36278;47.952;21.714;2023-05-19T11:17:52;100929.69;;;23.61;60.77
43071;BME280;36278;47.952;21.714;2023-05-19T11:20:23;100936.31;;;23.88;58.41
43071;BME280;36278;47.952;21.714;2023-05-19T11:25:50;100930.56;;;24.27;57.89
43071;BME280;36278;47.952;21.714;2023-05-19T11:28:20;100935.69;;;24.37;56.21
43071;BME280;36278;47.952;21.714;2023-05-19T11:30:50;100933.66;;;24.82;56.25
43071;BME280;36278;47.952;21.714;2023-05-19T11:33:19;100927.19;;;24.83;57.35
43071;BME280;36278;47.952;21.714;2023-05-19T11:35:46;100931.25;;;24.51;56.86
43071;BME280;36278;47.952;21.714;2023-05-19T11:38:13;100931.22;;;24.87;57.25
43071;BME280;36278;47.952;21.714;2023-05-19T11:40:41;100926.94;;;25.21;55.74
43071;BME280;36278;47.952;21.714;2023-05-19T11:43:07;100925.00;;;25.14;56.04
43071;BME280;36278;47.952;21.714;2023-05-19T11:45:33;100919.59;;;24.93;56.73
43071;BME280;36278;47.952;21.714;2023-05-19T11:48:00;100919.47;;;25.29;56.11
43071;BME280;36278;47.952;21.714;2023-05-19T11:50:27;100914.84;;;25.51;54.34
43071;BME280;36278;47.952;21.714;2023-05-19T11:52:53;100912.97;;;25.52;53.75
43071;BME280;36278;47.952;21.714;2023-05-19T11:55:20;100917.66;;;25.36;53.80
43071;BME280;36278;47.952;21.714;2023-05-19T12:00:24;100913.94;;;25.16;55.55
43071;BME280;36278;47.952;21.714;2023-05-19T12:02:50;100913.56;;;24.98;55.89
43071;BME280;36278;47.952;21.714;2023-05-19T12:05:42;100906.31;;;24.77;56.17
43071;BME280;36278;47.952;21.714;2023-05-19T12:08:11;100905.59;;;24.68;57.32
43071;BME280;36278;47.952;21.714;2023-05-19T12:10:37;100905.47;;;24.76;56.81
43071;BME280;36278;47.952;21.714;2023-05-19T12:13:05;100896.25;;;25.20;56.61
43071;BME280;36278;47.952;21.714;2023-05-19T12:15:33;100900.84;;;25.20;54.74
43071;BME280;36278;47.952;21.714;2023-05-19T12:18:00;100883.19;;;24.81;56.09
43071;BME280;36278;47.952;21.714;2023-05-19T12:20:28;100885.06;;;24.59;56.72
43071;BME280;36278;47.952;21.714;2023-05-19T12:22:56;100872.13;;;24.54;57.45
43071;BME280;36278;47.952;21.714;2023-05-19T12:25:23;100877.91;;;24.73;57.07
43071;BME280;36278;47.952;21.714;2023-05-19T12:27:49;100874.22;;;25.02;55.58
43071;BME280;36278;47.952;21.714;2023-05-19T12:30:17;100883.69;;;25.12;56.40
43071;BME280;36278;47.952;21.714;2023-05-19T12:32:44;100870.91;;;25.34;54.79
43071;BME280;36278;47.952;21.714;2023-05-19T12:35:10;100873.44;;;25.36;54.28
43071;BME280;36278;47.952;21.714;2023-05-19T12:37:40;100866.13;;;25.71;54.04
43071;BME280;36278;47.952;21.714;2023-05-19T12:40:06;100869.66;;;26.26;51.42
43071;BME280;36278;47.952;21.714;2023-05-19T12:42:32;100860.78;;;26.72;50.13
43071;BME280;36278;47.952;21.714;2023-05-19T12:45:01;100856.16;;;26.59;50.33
43071;BME280;36278;47.952;21.714;2023-05-19T12:47:32;100851.25;;;26.08;51.31
43071;BME280;36278;47.952;21.714;2023-05-19T12:50:05;100857.88;;;25.51;52.48
43071;BME280;36278;47.952;21.714;2023-05-19T12:52:48;100852.03;;;25.54;54.03
43071;BME280;36278;47.952;21.714;2023-05-19T12:55:16;100856.75;;;25.39;53.54
43071;BME280;36278;47.952;21.714;2023-05-19T12:57:43;100850.56;;;25.17;53.67
43071;BME280;36278;47.952;21.714;2023-05-19T13:00:14;100853.09;;;24.97;54.20
43071;BME280;36278;47.952;21.714;2023-05-19T13:03:05;100858.78;;;25.02;53.63